sensor_id;sensor_type;location;lat;lon;timestamp;temperature;humidity
21439;DHT22;10880;50.302;18.736;2024-03-02T00:02:48;14.20;66.40
21439;DHT22;10880;50.302;18.736;2024-03-02T00:07:59;14.20;66.30
21439;DHT22;10880;50.302;18.736;2024-03-02T00:10:31;14.20;66.90
21439;DHT22;10880;50.302;18.736;2024-03-02T00:13:08;14.20;66.80
21439;DHT22;10880;50.302;18.736;2024-03-02T00:18:12;14.10;66.70
21439;DHT22;10880;50.302;18.736;2024-03-02T00:20:43;14.10;66.70
21439;DHT22;10880;50.302;18.736;2024-03-02T00:23:32;14.00;66.60
21439;DHT22;10880;50.302;18.736;2024-03-02T00:26:03;14.00;66.70
21439;DHT22;10880;50.302;18.736;2024-03-02T00:28:38;14.00;66.50
21439;DHT22;10880;50.302;18.736;2024-03-02T00:31:10;14.00;66.50
21439;DHT22;10880;50.302;18.736;2024-03-02T00:33:46;13.90;66.40
21439;DHT22;10880;50.302;18.736;2024-03-02T00:36:27;13.90;66.40
21439;DHT22;10880;50.302;18.736;2024-03-02T00:38:54;13.80;66.40
21439;DHT22;10880;50.302;18.736;2024-03-02T00:41:30;13.80;65.90
21439;DHT22;10880;50.302;18.736;2024-03-02T00:44:03;13.80;66.50
21439;DHT22;10880;50.302;18.736;2024-03-02T00:46:42;13.70;66.40
21439;DHT22;10880;50.302;18.736;2024-03-02T00:49:21;13.70;66.40
21439;DHT22;10880;50.302;18.736;2024-03-02T00:51:56;13.60;65.80
21439;DHT22;10880;50.302;18.736;2024-03-02T00:54:31;13.60;65.70
21439;DHT22;10880;50.302;18.736;2024-03-02T00:57:04;13.60;66.50
21439;DHT22;10880;50.302;18.736;2024-03-02T00:59:31;13.50;65.70
21439;DHT22;10880;50.302;18.736;2024-03-02T01:02:01;13.50;65.70
21439;DHT22;10880;50.302;18.736;2024-03-02T01:04:27;13.50;66.30
21439;DHT22;10880;50.302;18.736;2024-03-02T01:06:54;13.40;66.20
21439;DHT22;10880;50.302;18.736;2024-03-02T01:09:25;13.40;67.00
21439;DHT22;10880;50.302;18.736;2024-03-02T01:11:57;13.30;65.60
21439;DHT22;10880;50.302;18.736;2024-03-02T01:14:26;13.30;66.20
21439;DHT22;10880;50.302;18.736;2024-03-02T01:16:55;13.30;66.20
21439;DHT22;10880;50.302;18.736;2024-03-02T01:19:26;13.20;65.60
21439;DHT22;10880;50.302;18.736;2024-03-02T01:21:56;13.20;66.20
21439;DHT22;10880;50.302;18.736;2024-03-02T01:24:26;13.10;65.50
21439;DHT22;10880;50.302;18.736;2024-03-02T01:26:52;13.10;66.20
21439;DHT22;10880;50.302;18.736;2024-03-02T01:29:18;13.10;65.70
21439;DHT22;10880;50.302;18.736;2024-03-02T01:31:45;13.10;66.30
21439;DHT22;10880;50.302;18.736;2024-03-02T01:34:12;13.00;65.80
21439;DHT22;10880;50.302;18.736;2024-03-02T01:36:42;13.00;66.40
21439;DHT22;10880;50.302;18.736;2024-03-02T01:41:35;12.90;65.80
21439;DHT22;10880;50.302;18.736;2024-03-02T01:44:02;12.90;66.40
21439;DHT22;10880;50.302;18.736;2024-03-02T01:46:28;12.90;66.50
21439;DHT22;10880;50.302;18.736;2024-03-02T01:48:57;12.90;66.60
21439;DHT22;10880;50.302;18.736;2024-03-02T01:51:23;12.80;66.00
21439;DHT22;10880;50.302;18.736;2024-03-02T01:53:49;12.80;66.50
21439;DHT22;10880;50.302;18.736;2024-03-02T01:56:18;12.80;66.50
21439;DHT22;10880;50.302;18.736;2024-03-02T01:58:45;12.80;66.40
21439;DHT22;10880;50.302;18.736;2024-03-02T02:01:12;12.70;66.30
21439;DHT22;10880;50.302;18.736;2024-03-02T02:06:08;12.70;65.70
21439;DHT22;10880;50.302;18.736;2024-03-02T02:08:37;12.70;65.70
21439;DHT22;10880;50.302;18.736;2024-03-02T02:11:06;12.70;66.40
21439;DHT22;10880;50.302;18.736;2024-03-02T02:16:07;12.60;65.70
21439;DHT22;10880;50.302;18.736;2024-03-02T02:18:38;12.60;66.40
21439;DHT22;10880;50.302;18.736;2024-03-02T02:21:06;12.50;65.70
21439;DHT22;10880;50.302;18.736;2024-03-02T02:26:03;12.50;65.80
21439;DHT22;10880;50.302;18.736;2024-03-02T02:28:30;12.50;66.40
21439;DHT22;10880;50.302;18.736;2024-03-02T02:33:26;12.40;65.90
21439;DHT22;10880;50.302;18.736;2024-03-02T02:38:21;10.70;64.90
21439;DHT22;10880;50.302;18.736;2024-03-02T02:40:48;12.40;65.90
21439;DHT22;10880;50.302;18.736;2024-03-02T02:45:42;12.40;66.00
21439;DHT22;10880;50.302;18.736;2024-03-02T02:48:11;12.30;66.00
21439;DHT22;10880;50.302;18.736;2024-03-02T02:50:39;12.30;66.60
21439;DHT22;10880;50.302;18.736;2024-03-02T02:53:13;12.30;66.60
21439;DHT22;10880;50.302;18.736;2024-03-02T02:58:10;12.30;66.00
21439;DHT22;10880;50.302;18.736;2024-03-02T03:00:36;12.30;66.70
21439;DHT22;10880;50.302;18.736;2024-03-02T03:03:09;12.30;66.60
21439;DHT22;10880;50.302;18.736;2024-03-02T03:05:35;12.30;66.70
21439;DHT22;10880;50.302;18.736;2024-03-02T03:08:01;12.30;66.70
21439;DHT22;10880;50.302;18.736;2024-03-02T03:10:28;12.30;66.80
21439;DHT22;10880;50.302;18.736;2024-03-02T03:12:55;12.20;66.60
21439;DHT22;10880;50.302;18.736;2024-03-02T03:15:26;12.20;66.60
21439;DHT22;10880;50.302;18.736;2024-03-02T03:17:53;12.20;66.60
21439;DHT22;10880;50.302;18.736;2024-03-02T03:20:19;12.20;66.60
21439;DHT22;10880;50.302;18.736;2024-03-02T03:22:47;12.20;66.00
21439;DHT22;10880;50.302;18.736;2024-03-02T03:25:14;12.20;66.60
21439;DHT22;10880;50.302;18.736;2024-03-02T03:27:40;12.20;66.60
21439;DHT22;10880;50.302;18.736;2024-03-02T03:30:07;12.20;66.60
21439;DHT22;10880;50.302;18.736;2024-03-02T03:32:38;12.20;66.00
21439;DHT22;10880;50.302;18.736;2024-03-02T03:35:07;12.20;66.80
21439;DHT22;10880;50.302;18.736;2024-03-02T03:40:08;12.20;66.20
21439;DHT22;10880;50.302;18.736;2024-03-02T03:42:41;12.10;66.90
21439;DHT22;10880;50.302;18.736;2024-03-02T03:45:08;12.20;66.40
21439;DHT22;10880;50.302;18.736;2024-03-02T03:50:03;12.20;66.40
21439;DHT22;10880;50.302;18.736;2024-03-02T03:55:04;12.20;66.50
21439;DHT22;10880;50.302;18.736;2024-03-02T03:57:34;12.20;66.50
21439;DHT22;10880;50.302;18.736;2024-03-02T04:02:44;12.20;66.50
21439;DHT22;10880;50.302;18.736;2024-03-02T04:05:10;12.20;66.50
21439;DHT22;10880;50.302;18.736;2024-03-02T04:07:37;12.20;67.10
21439;DHT22;10880;50.302;18.736;2024-03-02T04:10:09;12.20;67.10
21439;DHT22;10880;50.302;18.736;2024-03-02T04:12:41;12.30;67.20
21439;DHT22;10880;50.302;18.736;2024-03-02T04:15:13;12.20;67.10
21439;DHT22;10880;50.302;18.736;2024-03-02T04:17:39;12.20;67.20
21439;DHT22;10880;50.302;18.736;2024-03-02T04:20:06;12.20;67.10
21439;DHT22;10880;50.302;18.736;2024-03-02T04:22:33;12.20;67.10
21439;DHT22;10880;50.302;18.736;2024-03-02T04:25:02;12.20;66.60
21439;DHT22;10880;50.302;18.736;2024-03-02T04:27:31;12.20;67.20
21439;DHT22;10880;50.302;18.736;2024-03-02T04:30:01;12.20;67.10
21439;DHT22;10880;50.302;18.736;2024-03-02T04:37:26;12.20;66.50
21439;DHT22;10880;50.302;18.736;2024-03-02T04:39:53;12.20;67.10
21439;DHT22;10880;50.302;18.736;2024-03-02T04:42:19;12.20;67.10
21439;DHT22;10880;50.302;18.736;2024-03-02T04:44:46;12.30;67.20
21439;DHT22;10880;50.302;18.736;2024-03-02T04:47:12;12.20;67.10
21439;DHT22;10880;50.302;18.736;2024-03-02T04:49:39;12.30;67.20
21439;DHT22;10880;50.302;18.736;2024-03-02T04:52:07;12.20;67.00
21439;DHT22;10880;50.302;18.736;2024-03-02T04:54:34;12.20;67.10
21439;DHT22;10880;50.302;18.736;2024-03-02T04:57:24;12.20;66.50
21439;DHT22;10880;50.302;18.736;2024-03-02T04:59:53;13.50;67.80
21439;DHT22;10880;50.302;18.736;2024-03-02T05:02:23;12.20;67.10
21439;DHT22;10880;50.302;18.736;2024-03-02T05:04:52;12.20;67.10
21439;DHT22;10880;50.302;18.736;2024-03-02T05:07:18;13.40;67.80
21439;DHT22;10880;50.302;18.736;2024-03-02T05:09:45;12.10;66.40
21439;DHT22;10880;50.302;18.736;2024-03-02T05:12:14;12.10;66.30
21439;DHT22;10880;50.302;18.736;2024-03-02T05:17:10;12.10;66.30
21439;DHT22;10880;50.302;18.736;2024-03-02T05:19:37;12.10;66.30
21439;DHT22;10880;50.302;18.736;2024-03-02T05:22:06;12.00;66.30
21439;DHT22;10880;50.302;18.736;2024-03-02T05:24:35;12.10;66.40
21439;DHT22;10880;50.302;18.736;2024-03-02T05:27:03;12.00;66.30
21439;DHT22;10880;50.302;18.736;2024-03-02T05:29:32;12.00;66.50
21439;DHT22;10880;50.302;18.736;2024-03-02T05:31:59;12.00;66.50
21439;DHT22;10880;50.302;18.736;2024-03-02T05:34:28;12.00;66.30
21439;DHT22;10880;50.302;18.736;2024-03-02T05:39:23;12.00;66.40
21439;DHT22;10880;50.302;18.736;2024-03-02T05:41:56;12.00;67.00
21439;DHT22;10880;50.302;18.736;2024-03-02T05:44:23;12.00;66.50
21439;DHT22;10880;50.302;18.736;2024-03-02T05:46:50;12.00;67.10
21439;DHT22;10880;50.302;18.736;2024-03-02T05:49:18;12.00;67.20
21439;DHT22;10880;50.302;18.736;2024-03-02T05:51:45;11.90;66.70
21439;DHT22;10880;50.302;18.736;2024-03-02T05:54:12;11.90;67.30
21439;DHT22;10880;50.302;18.736;2024-03-02T05:56:40;11.90;66.70
21439;DHT22;10880;50.302;18.736;2024-03-02T05:59:07;11.90;66.80
21439;DHT22;10880;50.302;18.736;2024-03-02T06:01:43;11.90;67.40
21439;DHT22;10880;50.302;18.736;2024-03-02T06:04:10;11.90;67.40
21439;DHT22;10880;50.302;18.736;2024-03-02T06:06:42;12.00;66.90
21439;DHT22;10880;50.302;18.736;2024-03-02T06:09:09;12.00;67.40
21439;DHT22;10880;50.302;18.736;2024-03-02T06:11:39;12.00;66.90
21439;DHT22;10880;50.302;18.736;2024-03-02T06:14:07;12.00;67.40
21439;DHT22;10880;50.302;18.736;2024-03-02T06:16:34;12.00;67.50
21439;DHT22;10880;50.302;18.736;2024-03-02T06:19:01;12.00;67.50
21439;DHT22;10880;50.302;18.736;2024-03-02T06:23:56;12.00;67.10
21439;DHT22;10880;50.302;18.736;2024-03-02T06:28:49;12.00;67.10
21439;DHT22;10880;50.302;18.736;2024-03-02T06:31:19;12.00;68.00
21439;DHT22;10880;50.302;18.736;2024-03-02T06:36:12;12.10;67.30
21439;DHT22;10880;50.302;18.736;2024-03-02T06:38:39;12.10;67.40
21439;DHT22;10880;50.302;18.736;2024-03-02T06:41:09;12.10;68.00
21439;DHT22;10880;50.302;18.736;2024-03-02T06:51:16;12.30;67.70
21439;DHT22;10880;50.302;18.736;2024-03-02T06:56:24;12.30;67.70
21439;DHT22;10880;50.302;18.736;2024-03-02T06:58:51;11.30;67.10
21439;DHT22;10880;50.302;18.736;2024-03-02T07:01:18;12.40;67.70
21439;DHT22;10880;50.302;18.736;2024-03-02T07:04:06;12.40;68.50
21439;DHT22;10880;50.302;18.736;2024-03-02T07:06:36;12.40;68.40
21439;DHT22;10880;50.302;18.736;2024-03-02T07:09:03;12.50;68.00
21439;DHT22;10880;50.302;18.736;2024-03-02T07:11:31;12.50;67.90
21439;DHT22;10880;50.302;18.736;2024-03-02T07:16:32;12.60;68.10
21439;DHT22;10880;50.302;18.736;2024-03-02T07:43:44;13.10;68.10
21439;DHT22;10880;50.302;18.736;2024-03-02T07:48:43;13.20;68.00
21439;DHT22;10880;50.302;18.736;2024-03-02T08:16:15;13.50;67.80
21439;DHT22;10880;50.302;18.736;2024-03-02T08:36:40;13.90;67.80
21439;DHT22;10880;50.302;18.736;2024-03-02T08:39:12;13.90;67.90
21439;DHT22;10880;50.302;18.736;2024-03-02T08:44:40;14.00;67.70
21439;DHT22;10880;50.302;18.736;2024-03-02T08:57:27;14.20;67.80
21439;DHT22;10880;50.302;18.736;2024-03-02T09:05:03;14.30;67.80
21439;DHT22;10880;50.302;18.736;2024-03-02T09:07:31;14.40;67.80
21439;DHT22;10880;50.302;18.736;2024-03-02T09:20:05;14.50;67.60
21439;DHT22;10880;50.302;18.736;2024-03-02T09:22:40;14.60;67.50
21439;DHT22;10880;50.302;18.736;2024-03-02T09:25:09;14.60;67.50
21439;DHT22;10880;50.302;18.736;2024-03-02T09:52:39;15.00;66.80
21439;DHT22;10880;50.302;18.736;2024-03-02T09:58:18;15.00;66.90
21439;DHT22;10880;50.302;18.736;2024-03-02T10:03:12;15.10;66.80
21439;DHT22;10880;50.302;18.736;2024-03-02T10:08:06;15.20;66.80
21439;DHT22;10880;50.302;18.736;2024-03-02T10:20:32;15.40;66.80
21439;DHT22;10880;50.302;18.736;2024-03-02T10:27:38;15.50;66.80
21439;DHT22;10880;50.302;18.736;2024-03-02T10:30:14;15.60;66.70
21439;DHT22;10880;50.302;18.736;2024-03-02T10:35:22;15.60;66.70
21439;DHT22;10880;50.302;18.736;2024-03-02T10:37:58;15.70;66.70
21439;DHT22;10880;50.302;18.736;2024-03-02T10:40:31;15.70;66.70
21439;DHT22;10880;50.302;18.736;2024-03-02T10:43:01;15.80;66.60
21439;DHT22;10880;50.302;18.736;2024-03-02T10:48:07;15.90;66.60
21439;DHT22;10880;50.302;18.736;2024-03-02T10:53:26;16.00;66.70
21439;DHT22;10880;50.302;18.736;2024-03-02T10:55:57;16.00;66.50
21439;DHT22;10880;50.302;18.736;2024-03-02T10:58:37;16.00;66.40
21439;DHT22;10880;50.302;18.736;2024-03-02T11:01:08;16.10;66.30
21439;DHT22;10880;50.302;18.736;2024-03-02T11:08:40;16.20;65.90
21439;DHT22;10880;50.302;18.736;2024-03-02T11:11:21;16.20;65.80
21439;DHT22;10880;50.302;18.736;2024-03-02T11:16:37;16.20;65.60
21439;DHT22;10880;50.302;18.736;2024-03-02T11:19:17;16.20;65.60
21439;DHT22;10880;50.302;18.736;2024-03-02T11:21:46;16.20;65.40
21439;DHT22;10880;50.302;18.736;2024-03-02T11:24:31;16.30;65.50
21439;DHT22;10880;50.302;18.736;2024-03-02T11:27:09;16.30;66.10
21439;DHT22;10880;50.302;18.736;2024-03-02T11:29:48;16.30;65.30
21439;DHT22;10880;50.302;18.736;2024-03-02T11:32:20;16.20;65.10
21439;DHT22;10880;50.302;18.736;2024-03-02T11:34:49;16.20;65.10
21439;DHT22;10880;50.302;18.736;2024-03-02T11:37:20;16.30;65.20
21439;DHT22;10880;50.302;18.736;2024-03-02T11:44:47;16.30;65.00
21439;DHT22;10880;50.302;18.736;2024-03-02T11:49:49;16.20;64.80
21439;DHT22;10880;50.302;18.736;2024-03-02T11:52:36;16.30;64.90
21439;DHT22;10880;50.302;18.736;2024-03-02T12:07:26;16.40;64.80
21439;DHT22;10880;50.302;18.736;2024-03-02T12:10:00;16.40;64.80
21439;DHT22;10880;50.302;18.736;2024-03-02T12:14:56;16.40;64.60
21439;DHT22;10880;50.302;18.736;2024-03-02T12:20:23;16.40;64.60
21439;DHT22;10880;50.302;18.736;2024-03-02T12:22:51;16.50;64.60
21439;DHT22;10880;50.302;18.736;2024-03-02T12:27:53;16.50;64.40
21439;DHT22;10880;50.302;18.736;2024-03-02T12:30:20;16.50;64.40
21439;DHT22;10880;50.302;18.736;2024-03-02T12:32:47;16.50;64.30
21439;DHT22;10880;50.302;18.736;2024-03-02T12:37:45;16.60;64.30
21439;DHT22;10880;50.302;18.736;2024-03-02T12:42:40;16.60;64.30
21439;DHT22;10880;50.302;18.736;2024-03-02T12:45:12;16.60;64.30
21439;DHT22;10880;50.302;18.736;2024-03-02T12:47:40;16.70;64.30
21439;DHT22;10880;50.302;18.736;2024-03-02T12:50:07;16.70;64.30
21439;DHT22;10880;50.302;18.736;2024-03-02T12:52:34;16.70;64.30
21439;DHT22;10880;50.302;18.736;2024-03-02T12:55:02;16.70;64.40
21439;DHT22;10880;50.302;18.736;2024-03-02T12:57:31;16.70;64.40
21439;DHT22;10880;50.302;18.736;2024-03-02T13:02:36;16.80;64.30
21439;DHT22;10880;50.302;18.736;2024-03-02T13:05:03;16.80;64.40
21439;DHT22;10880;50.302;18.736;2024-03-02T13:07:32;16.80;64.40
21439;DHT22;10880;50.302;18.736;2024-03-02T13:18:22;16.80;64.40
21439;DHT22;10880;50.302;18.736;2024-03-02T13:31:06;16.80;64.70
21439;DHT22;10880;50.302;18.736;2024-03-02T13:33:45;16.70;64.60
21439;DHT22;10880;50.302;18.736;2024-03-02T13:52:37;16.60;64.80
21439;DHT22;10880;50.302;18.736;2024-03-02T13:55:31;16.60;64.90
21439;DHT22;10880;50.302;18.736;2024-03-02T13:58:04;16.60;65.00
21439;DHT22;10880;50.302;18.736;2024-03-02T14:00:38;16.60;65.00
21439;DHT22;10880;50.302;18.736;2024-03-02T14:03:17;16.40;65.50
21439;DHT22;10880;50.302;18.736;2024-03-02T14:05:53;16.50;65.00
21439;DHT22;10880;50.302;18.736;2024-03-02T14:08:23;16.50;65.10
21439;DHT22;10880;50.302;18.736;2024-03-02T14:10:58;16.50;65.10
21439;DHT22;10880;50.302;18.736;2024-03-02T14:13:39;16.50;65.20
21439;DHT22;10880;50.302;18.736;2024-03-02T14:16:21;16.40;65.20
21439;DHT22;10880;50.302;18.736;2024-03-02T14:26:52;16.40;65.50
21439;DHT22;10880;50.302;18.736;2024-03-02T14:33:30;16.30;65.60
21439;DHT22;10880;50.302;18.736;2024-03-02T14:36:07;16.30;65.60
21439;DHT22;10880;50.302;18.736;2024-03-02T14:45:16;16.40;65.70
21439;DHT22;10880;50.302;18.736;2024-03-02T14:47:49;16.30;65.80
21439;DHT22;10880;50.302;18.736;2024-03-02T14:50:49;16.30;65.90
21439;DHT22;10880;50.302;18.736;2024-03-02T14:57:00;16.30;65.90
21439;DHT22;10880;50.302;18.736;2024-03-02T14:59:44;16.30;66.00
21439;DHT22;10880;50.302;18.736;2024-03-02T15:05:00;16.30;66.10
21439;DHT22;10880;50.302;18.736;2024-03-02T15:12:45;16.30;66.20
21439;DHT22;10880;50.302;18.736;2024-03-02T15:15:25;16.30;66.30
21439;DHT22;10880;50.302;18.736;2024-03-02T15:18:14;16.40;66.30
21439;DHT22;10880;50.302;18.736;2024-03-02T15:20:44;16.30;66.10
21439;DHT22;10880;50.302;18.736;2024-03-02T15:23:17;16.30;66.20
21439;DHT22;10880;50.302;18.736;2024-03-02T15:36:24;16.30;66.30
21439;DHT22;10880;50.302;18.736;2024-03-02T15:44:36;16.30;66.20
21439;DHT22;10880;50.302;18.736;2024-03-02T15:55:56;16.30;66.10
21439;DHT22;10880;50.302;18.736;2024-03-02T15:58:44;16.30;66.10
21439;DHT22;10880;50.302;18.736;2024-03-02T16:01:12;16.90;67.10
21439;DHT22;10880;50.302;18.736;2024-03-02T16:03:39;16.20;66.70
21439;DHT22;10880;50.302;18.736;2024-03-02T16:06:07;16.20;66.10
21439;DHT22;10880;50.302;18.736;2024-03-02T16:11:02;16.20;66.20
21439;DHT22;10880;50.302;18.736;2024-03-02T16:13:30;16.20;66.90
21439;DHT22;10880;50.302;18.736;2024-03-02T16:16:30;16.20;66.90
21439;DHT22;10880;50.302;18.736;2024-03-02T16:20:08;16.10;66.30
21439;DHT22;10880;50.302;18.736;2024-03-02T16:22:40;16.10;66.90
21439;DHT22;10880;50.302;18.736;2024-03-02T16:25:07;16.10;66.80
21439;DHT22;10880;50.302;18.736;2024-03-02T16:27:34;16.10;66.90
21439;DHT22;10880;50.302;18.736;2024-03-02T16:30:00;16.00;66.80
21439;DHT22;10880;50.302;18.736;2024-03-02T16:32:29;16.00;66.30
21439;DHT22;10880;50.302;18.736;2024-03-02T16:34:57;16.00;66.30
21439;DHT22;10880;50.302;18.736;2024-03-02T16:37:25;16.00;67.00
21439;DHT22;10880;50.302;18.736;2024-03-02T16:39:53;16.00;67.00
21439;DHT22;10880;50.302;18.736;2024-03-02T16:42:23;16.00;67.10
21439;DHT22;10880;50.302;18.736;2024-03-02T16:44:50;16.00;67.00
21439;DHT22;10880;50.302;18.736;2024-03-02T16:47:22;16.00;67.10
21439;DHT22;10880;50.302;18.736;2024-03-02T16:49:50;17.40;68.00
21439;DHT22;10880;50.302;18.736;2024-03-02T16:54:50;15.90;66.50
21439;DHT22;10880;50.302;18.736;2024-03-02T16:57:17;15.90;67.10
21439;DHT22;10880;50.302;18.736;2024-03-02T16:59:45;15.90;67.30
21439;DHT22;10880;50.302;18.736;2024-03-02T17:04:57;15.90;66.60
21439;DHT22;10880;50.302;18.736;2024-03-02T17:07:29;15.90;66.60
21439;DHT22;10880;50.302;18.736;2024-03-02T17:09:57;15.80;67.10
21439;DHT22;10880;50.302;18.736;2024-03-02T17:14:53;15.80;66.60
21439;DHT22;10880;50.302;18.736;2024-03-02T17:17:27;15.80;67.30
21439;DHT22;10880;50.302;18.736;2024-03-02T17:20:02;15.70;66.60
21439;DHT22;10880;50.302;18.736;2024-03-02T17:25:25;15.70;66.70
21439;DHT22;10880;50.302;18.736;2024-03-02T17:27:51;15.70;66.80
21439;DHT22;10880;50.302;18.736;2024-03-02T17:30:48;15.70;66.80
21439;DHT22;10880;50.302;18.736;2024-03-02T17:52:57;15.60;66.80
21439;DHT22;10880;50.302;18.736;2024-03-02T18:11:01;15.40;67.10
21439;DHT22;10880;50.302;18.736;2024-03-02T18:13:30;15.40;66.90
21439;DHT22;10880;50.302;18.736;2024-03-02T18:16:01;15.30;66.90
21439;DHT22;10880;50.302;18.736;2024-03-02T18:21:04;15.30;66.90
21439;DHT22;10880;50.302;18.736;2024-03-02T18:23:32;15.20;66.90
21439;DHT22;10880;50.302;18.736;2024-03-02T18:25:59;15.20;66.90
21439;DHT22;10880;50.302;18.736;2024-03-02T18:28:29;15.20;66.90
21439;DHT22;10880;50.302;18.736;2024-03-02T18:31:07;15.20;67.60
21439;DHT22;10880;50.302;18.736;2024-03-02T18:33:37;15.10;67.00
21439;DHT22;10880;50.302;18.736;2024-03-02T18:39:10;15.10;66.90
21439;DHT22;10880;50.302;18.736;2024-03-02T18:44:53;15.00;66.80
21439;DHT22;10880;50.302;18.736;2024-03-02T18:47:20;15.00;66.90
21439;DHT22;10880;50.302;18.736;2024-03-02T18:49:53;15.00;67.50
21439;DHT22;10880;50.302;18.736;2024-03-02T18:52:25;14.90;67.50
21439;DHT22;10880;50.302;18.736;2024-03-02T18:54:56;14.80;66.80
21439;DHT22;10880;50.302;18.736;2024-03-02T18:57:23;14.80;66.80
21439;DHT22;10880;50.302;18.736;2024-03-02T18:59:56;14.80;66.90
21439;DHT22;10880;50.302;18.736;2024-03-02T19:02:30;14.80;66.90
21439;DHT22;10880;50.302;18.736;2024-03-02T19:04:57;14.70;67.50
21439;DHT22;10880;50.302;18.736;2024-03-02T19:07:27;14.70;67.40
21439;DHT22;10880;50.302;18.736;2024-03-02T19:12:32;14.60;66.70
21439;DHT22;10880;50.302;18.736;2024-03-02T19:15:05;14.50;66.60
21439;DHT22;10880;50.302;18.736;2024-03-02T19:20:08;14.40;66.50
21439;DHT22;10880;50.302;18.736;2024-03-02T19:22:50;14.40;67.20
21439;DHT22;10880;50.302;18.736;2024-03-02T19:25:18;14.40;67.10
21439;DHT22;10880;50.302;18.736;2024-03-02T19:27:52;14.30;66.50
21439;DHT22;10880;50.302;18.736;2024-03-02T19:32:51;13.70;66.20
21439;DHT22;10880;50.302;18.736;2024-03-02T19:35:23;14.20;66.50
21439;DHT22;10880;50.302;18.736;2024-03-02T19:38:00;14.10;66.50
21439;DHT22;10880;50.302;18.736;2024-03-02T19:40:34;14.10;67.10
21439;DHT22;10880;50.302;18.736;2024-03-02T19:43:06;14.00;66.50
21439;DHT22;10880;50.302;18.736;2024-03-02T19:48:10;13.90;66.30
21439;DHT22;10880;50.302;18.736;2024-03-02T19:53:08;13.80;66.30
21439;DHT22;10880;50.302;18.736;2024-03-02T19:55:39;13.80;66.90
21439;DHT22;10880;50.302;18.736;2024-03-02T20:01:11;13.70;66.40
21439;DHT22;10880;50.302;18.736;2024-03-02T21:09:07;12.90;67.10
21439;DHT22;10880;50.302;18.736;2024-03-02T21:16:49;12.90;67.20
21439;DHT22;10880;50.302;18.736;2024-03-02T21:21:51;12.90;67.30
21439;DHT22;10880;50.302;18.736;2024-03-02T21:26:52;12.90;67.30
21439;DHT22;10880;50.302;18.736;2024-03-02T21:34:42;12.90;67.30
21439;DHT22;10880;50.302;18.736;2024-03-02T21:37:17;12.90;67.30
21439;DHT22;10880;50.302;18.736;2024-03-02T21:40:18;12.90;67.30
21439;DHT22;10880;50.302;18.736;2024-03-02T21:43:01;12.90;67.40
21439;DHT22;10880;50.302;18.736;2024-03-02T21:56:30;12.90;67.40
21439;DHT22;10880;50.302;18.736;2024-03-02T22:01:38;12.90;67.70
21439;DHT22;10880;50.302;18.736;2024-03-02T22:09:37;12.90;67.80
21439;DHT22;10880;50.302;18.736;2024-03-02T22:21:35;13.00;68.10
21439;DHT22;10880;50.302;18.736;2024-03-02T22:26:28;13.00;68.30
21439;DHT22;10880;50.302;18.736;2024-03-02T22:28:55;13.00;69.00
21439;DHT22;10880;50.302;18.736;2024-03-02T22:31:21;13.00;69.10
21439;DHT22;10880;50.302;18.736;2024-03-02T22:33:50;13.10;69.10
21439;DHT22;10880;50.302;18.736;2024-03-02T22:36:17;13.10;68.60
21439;DHT22;10880;50.302;18.736;2024-03-02T22:41:10;13.10;68.60
21439;DHT22;10880;50.302;18.736;2024-03-02T22:43:36;13.10;68.60
21439;DHT22;10880;50.302;18.736;2024-03-02T22:46:03;13.20;68.70
21439;DHT22;10880;50.302;18.736;2024-03-02T22:50:57;13.20;68.60
21439;DHT22;10880;50.302;18.736;2024-03-02T22:53:23;13.20;69.20
21439;DHT22;10880;50.302;18.736;2024-03-02T22:55:50;13.20;69.10
21439;DHT22;10880;50.302;18.736;2024-03-02T23:00:45;13.30;68.60
21439;DHT22;10880;50.302;18.736;2024-03-02T23:03:18;13.30;69.20
21439;DHT22;10880;50.302;18.736;2024-03-02T23:05:44;13.30;68.60
21439;DHT22;10880;50.302;18.736;2024-03-02T23:10:43;13.30;68.50
21439;DHT22;10880;50.302;18.736;2024-03-02T23:13:11;13.30;69.20
21439;DHT22;10880;50.302;18.736;2024-03-02T23:18:05;13.30;68.50
21439;DHT22;10880;50.302;18.736;2024-03-02T23:22:58;13.30;68.40
21439;DHT22;10880;50.302;18.736;2024-03-02T23:25:31;13.40;68.60
21439;DHT22;10880;50.302;18.736;2024-03-02T23:32:55;13.40;68.50
21439;DHT22;10880;50.302;18.736;2024-03-02T23:35:22;13.40;69.10
21439;DHT22;10880;50.302;18.736;2024-03-02T23:37:52;13.40;69.10
21439;DHT22;10880;50.302;18.736;2024-03-02T23:40:19;13.40;68.50
21439;DHT22;10880;50.302;18.736;2024-03-02T23:43:04;13.40;68.60
21439;DHT22;10880;50.302;18.736;2024-03-02T23:48:03;13.40;68.50
21439;DHT22;10880;50.302;18.736;2024-03-02T23:50:31;13.40;69.10
21439;DHT22;10880;50.302;18.736;2024-03-02T23:52:57;13.40;68.40
21439;DHT22;10880;50.302;18.736;2024-03-02T23:55:26;13.40;69.10
21439;DHT22;10880;50.302;18.736;2024-03-02T23:57:54;13.40;69.00
